Terminal Aerodrome Forecast
Issued by NWS Green Bay, WI

Home | Current Version | Previous Version | Text Only | Print | Product List | Glossary Off
Versions: 1 2 3 4 5 6 7 8 9 10 11 12 13 14 15 16 17 18 19 20 21 22 23 24 25 26 27 28 29 30 31 32 33 34 35 36 37 38 39 40 41 42 43 44 45 46 47 48

267
FTUS43 KGRB 222321
TAFGRB
TAF
KGRB 222321Z 2300/2324 02015G26KT P6SM OVC007
      TEMPO 2300/2304 5SM -RADZ BR OVC004
     FM230400 02014G24KT P6SM VCSH OVC008
     FM230900 01016G24KT P6SM -SN OVC010 PROB30 2309/2313 4SM -SHSN
      OVC003
     FM231500 35015G23KT P6SM OVC015
     FM231900 34014KT P6SM BKN040
     FM232100 34013KT P6SM SCT060=

USA.gov is the U.S. government's official web portal to all federal, state and local government web resources and services.